Rogiet, United Kingdom
Current Conditions -  °F | °C
As of 4:50 AM on Saturday 20 Dec 2014 (Local Time) from EGGD Reporting Station
Broken Clouds Broken Clouds  
Wind Chill: 37°   Ceiling: 3900
Heat Index: 45°   Visibility: 6mi
Dew Point: 39°   Wind: 20mph
Humidity: 81%   Direction: 270°W
Pressure: 30.27"   Gusts: NA
Location:  51.59°N, 2.78°W
Report Text: EGGD 200450Z 27017KT 9999 SCT020 BKN039 07/04 Q1025
Loading
Personal Weather Stations






























Interactive Weather Map New forecast layout! Learn more

10-Day Weather Forecast

Advertisements
Track Severe Weather on mobile